Time;durP1;ratioP1;P1;durP2;ratioP2;P2;SDS_P1;SDS_P2;PMS_P1;PMS_P2;Temp;Humidity;BMP_temperature;BMP_pressure;BME280_temperature;BME280_humidity;BME280_pressure;Samples;Min_cycle;Max_cycle;Signal;HPM_P1;HPM_P2
2023/06/06 00:00:29;;;;;;;11.77;4.77;;;15.20;99.90;;;;;;5053816;28;20687;-81
2023/06/06 00:02:56;;;;;;;8.33;4.13;;;15.20;99.90;;;;;;5054205;28;20693;-80
2023/06/06 00:05:27;;;;;;;10.37;4.50;;;15.20;99.90;;;;;;5053693;28;20228;-81
2023/06/06 00:07:54;;;;;;;9.30;4.27;;;15.10;99.90;;;;;;5053877;28;20222;-81
2023/06/06 00:10:21;;;;;;;8.30;4.57;;;15.20;99.90;;;;;;5053663;28;20260;-82
2023/06/06 00:12:52;;;;;;;8.53;4.37;;;15.10;99.90;;;;;;5072070;28;20194;-82
2023/06/06 00:15:19;;;;;;;11.83;4.60;;;15.00;99.90;;;;;;5053856;28;20230;-81
2023/06/06 00:17:55;;;;;;;10.57;4.40;;;15.00;99.90;;;;;;5037457;28;20225;-81
2023/06/06 00:20:23;;;;;;;10.97;4.27;;;15.00;99.90;;;;;;5054745;28;20568;-82
2023/06/06 00:22:53;;;;;;;9.30;4.30;;;15.00;99.90;;;;;;5058214;28;20285;-81
2023/06/06 00:25:20;;;;;;;11.27;4.20;;;14.90;99.90;;;;;;5057803;28;20284;-82
2023/06/06 00:27:47;;;;;;;11.60;4.30;;;14.90;99.90;;;;;;5075556;28;20281;-81
2023/06/06 00:30:14;;;;;;;7.27;4.20;;;14.80;99.90;;;;;;5057363;28;20315;-81
2023/06/06 00:32:41;;;;;;;7.03;4.23;;;14.80;99.90;;;;;;5057785;28;20289;-82
2023/06/06 00:35:09;;;;;;;7.03;3.60;;;14.80;99.90;;;;;;5057659;28;20225;-81
2023/06/06 00:37:37;;;;;;;7.43;4.50;;;14.80;99.90;;;;;;5057874;28;20554;-81
2023/06/06 00:40:06;;;;;;;8.57;3.97;;;14.80;99.90;;;;;;5075334;28;20214;-82
2023/06/06 00:42:33;;;;;;;8.70;4.03;;;14.80;99.90;;;;;;5057563;28;20205;-82
2023/06/06 00:45:00;;;;;;;8.70;3.93;;;14.70;99.90;;;;;;5057199;28;20720;-81
2023/06/06 00:47:27;;;;;;;11.47;4.43;;;14.70;99.90;;;;;;5075231;28;20579;-81
2023/06/06 00:49:55;;;;;;;8.77;4.30;;;14.70;99.90;;;;;;5074562;28;20739;-81
2023/06/06 00:52:24;;;;;;;9.23;4.50;;;14.70;99.90;;;;;;5057168;28;20190;-82
2023/06/06 00:54:51;;;;;;;9.77;4.37;;;14.70;99.90;;;;;;5057262;28;20277;-82
2023/06/06 00:57:20;;;;;;;9.53;4.33;;;14.60;99.90;;;;;;5040350;28;20232;-82
2023/06/06 00:59:47;;;;;;;9.03;4.53;;;14.50;99.90;;;;;;5056887;28;20210;-80
2023/06/06 01:02:17;;;;;;;8.03;4.13;;;14.40;99.90;;;;;;5056844;28;20240;-81
2023/06/06 01:04:45;;;;;;;9.00;4.50;;;14.40;99.90;;;;;;5075002;28;20228;-82
2023/06/06 01:07:16;;;;;;;9.77;4.63;;;14.40;99.90;;;;;;5056843;28;20251;-82
2023/06/06 01:09:45;;;;;;;9.40;4.40;;;14.20;99.90;;;;;;5073625;28;20628;-82
2023/06/06 01:12:23;;;;;;;8.57;4.50;;;14.20;99.90;;;;;;5056785;28;20233;-83
2023/06/06 01:15:04;;;;;;;9.27;4.90;;;14.20;99.90;;;;;;5056884;28;20754;-82
2023/06/06 01:17:33;;;;;;;9.90;4.80;;;14.20;99.90;;;;;;5073552;28;20193;-80
2023/06/06 01:20:01;;;;;;;10.70;5.30;;;14.10;99.90;;;;;;5056790;28;20272;-82
2023/06/06 01:22:29;;;;;;;9.37;4.90;;;14.10;99.90;;;;;;5041314;28;20195;-83
2023/06/06 01:24:57;;;;;;;9.40;5.10;;;14.00;99.90;;;;;;5073788;28;20215;-83
2023/06/06 01:27:26;;;;;;;10.33;5.53;;;14.00;99.90;;;;;;5041435;28;20221;-83
2023/06/06 01:29:53;;;;;;;10.97;5.27;;;14.10;99.90;;;;;;5058342;28;20230;-84
2023/06/06 01:32:30;;;;;;;11.33;5.20;;;14.00;99.90;;;;;;5040262;28;20725;-82
2023/06/06 01:35:05;;;;;;;14.47;5.50;;;14.00;99.90;;;;;;5056885;28;20217;-81
2023/06/06 01:37:54;;;;;;;12.93;5.70;;;13.90;99.90;;;;;;5041600;28;20198;-82
2023/06/06 01:40:24;;;;;;;11.43;5.27;;;13.90;99.90;;;;;;5057943;28;20318;-82
2023/06/06 01:42:52;;;;;;;10.33;5.60;;;13.80;99.90;;;;;;5040398;28;20205;-81
2023/06/06 01:45:24;;;;;;;10.37;5.67;;;13.80;99.90;;;;;;5056431;28;20642;-81
2023/06/06 01:47:52;;;;;;;10.63;5.50;;;13.90;99.90;;;;;;5056795;28;20194;-82
2023/06/06 01:50:21;;;;;;;11.03;5.80;;;13.70;99.90;;;;;;5056500;28;20280;-81
2023/06/06 01:52:47;;;;;;;11.20;5.90;;;13.70;99.90;;;;;;5073318;28;20780;-83
2023/06/06 01:55:14;;;;;;;12.40;5.60;;;13.60;99.90;;;;;;5056832;28;20220;-84
2023/06/06 01:57:42;;;;;;;11.07;6.07;;;13.50;99.90;;;;;;5040658;28;20222;-84
2023/06/06 02:00:09;;;;;;;9.20;5.50;;;13.50;99.90;;;;;;5057597;28;20312;-83
2023/06/06 02:02:36;;;;;;;10.00;5.80;;;13.50;99.90;;;;;;5057913;28;20194;-83
2023/06/06 02:05:04;;;;;;;9.33;5.60;;;13.50;99.90;;;;;;5074725;28;20371;-83
2023/06/06 02:07:34;;;;;;;8.57;5.20;;;13.40;99.90;;;;;;5075511;28;20201;-83
2023/06/06 02:10:02;;;;;;;10.30;5.50;;;13.30;99.90;;;;;;5074660;28;20295;-83
2023/06/06 02:12:29;;;;;;;10.90;5.80;;;13.30;99.90;;;;;;5055812;28;20197;-83
2023/06/06 02:14:56;;;;;;;11.67;5.70;;;13.30;99.90;;;;;;5073213;28;20236;-82
2023/06/06 02:17:23;;;;;;;9.93;5.50;;;13.30;99.90;;;;;;5071852;28;20553;-83
2023/06/06 02:19:51;;;;;;;7.83;5.50;;;13.30;99.90;;;;;;5055577;28;20317;-82
2023/06/06 02:22:17;;;;;;;8.23;5.23;;;13.40;99.90;;;;;;5055554;28;20232;-82
2023/06/06 02:24:44;;;;;;;8.63;4.93;;;13.30;99.90;;;;;;5055616;28;20249;-82
2023/06/06 02:27:14;;;;;;;10.13;5.33;;;13.30;99.90;;;;;;5055782;28;20224;-84
2023/06/06 02:29:42;;;;;;;10.50;5.50;;;13.20;99.90;;;;;;5055354;28;20230;-83
2023/06/06 02:32:10;;;;;;;11.10;5.50;;;13.20;99.90;;;;;;5055466;28;20711;-84
2023/06/06 02:34:37;;;;;;;8.67;5.27;;;13.20;99.90;;;;;;5055432;28;20218;-82
2023/06/06 02:37:06;;;;;;;10.13;5.50;;;13.20;99.90;;;;;;5055738;28;20186;-81
2023/06/06 02:39:34;;;;;;;9.43;5.47;;;13.10;99.90;;;;;;5055503;28;20214;-83
2023/06/06 02:42:05;;;;;;;9.97;5.60;;;13.10;99.90;;;;;;5071977;28;20209;-83
2023/06/06 02:44:32;;;;;;;11.23;5.27;;;13.10;99.90;;;;;;5055189;28;20210;-83
2023/06/06 02:47:00;;;;;;;8.43;5.50;;;13.10;99.90;;;;;;5054699;28;20225;-81
2023/06/06 02:49:29;;;;;;;10.50;5.70;;;13.20;99.90;;;;;;5054538;28;20681;-82
2023/06/06 02:51:56;;;;;;;11.00;5.20;;;13.20;99.90;;;;;;5054903;28;20186;-82
2023/06/06 02:54:23;;;;;;;10.37;5.30;;;13.20;99.90;;;;;;5071469;28;20249;-82
2023/06/06 02:56:50;;;;;;;8.77;5.30;;;13.20;99.90;;;;;;5054773;28;20232;-82
2023/06/06 02:59:17;;;;;;;9.70;5.60;;;13.10;99.90;;;;;;5054973;28;20249;-82
2023/06/06 03:01:44;;;;;;;9.63;5.83;;;13.10;99.90;;;;;;5054680;28;20202;-82
2023/06/06 03:04:13;;;;;;;11.37;5.27;;;13.20;99.90;;;;;;5038346;28;20204;-82
2023/06/06 03:06:41;;;;;;;7.97;5.30;;;13.20;99.90;;;;;;5038283;28;20202;-82
2023/06/06 03:09:09;;;;;;;9.83;5.23;;;13.20;99.90;;;;;;5072341;28;20217;-82
2023/06/06 03:11:36;;;;;;;9.30;5.10;;;13.30;99.90;;;;;;5037790;28;20541;-82
2023/06/06 03:14:03;;;;;;;8.53;4.90;;;13.20;99.90;;;;;;5054303;28;20677;-82
2023/06/06 03:16:30;;;;;;;9.20;5.00;;;13.40;99.90;;;;;;5054401;28;20293;-83
2023/06/06 03:18:57;;;;;;;11.07;5.10;;;13.30;99.90;;;;;;5054165;28;20676;-81
2023/06/06 03:21:24;;;;;;;9.00;5.27;;;13.40;99.90;;;;;;5054779;28;20311;-82
2023/06/06 03:23:53;;;;;;;7.90;4.90;;;13.50;99.90;;;;;;5054597;28;20202;-82
2023/06/06 03:26:19;;;;;;;10.60;4.90;;;13.50;99.90;;;;;;5054350;28;20218;-82
2023/06/06 03:28:47;;;;;;;8.40;4.60;;;13.50;99.90;;;;;;5070951;28;20720;-82
2023/06/06 03:31:15;;;;;;;7.10;5.00;;;13.60;99.90;;;;;;5072414;28;20674;-81
2023/06/06 03:33:42;;;;;;;9.10;5.10;;;13.60;99.90;;;;;;5072614;28;20190;-82
2023/06/06 03:36:10;;;;;;;10.07;5.10;;;13.70;99.90;;;;;;5072321;28;20236;-82
2023/06/06 03:38:37;;;;;;;8.00;4.87;;;13.80;99.90;;;;;;5054378;28;20300;-81
2023/06/06 03:41:03;;;;;;;7.17;4.57;;;13.70;99.90;;;;;;5054791;28;20256;-82
2023/06/06 03:43:30;;;;;;;14.17;4.57;;;13.80;99.90;;;;;;5072529;28;20592;-80
2023/06/06 03:45:57;;;;;;;8.67;4.90;;;13.80;99.90;;;;;;5055095;28;20636;-79
2023/06/06 03:48:24;;;;;;;10.30;5.10;;;13.80;99.90;;;;;;5055500;28;20222;-80
2023/06/06 03:50:51;;;;;;;10.07;5.27;;;13.90;99.90;;;;;;5039186;28;20325;-81
2023/06/06 03:53:18;;;;;;;7.83;4.33;;;13.90;99.90;;;;;;5055761;28;20233;-81
2023/06/06 03:55:46;;;;;;;8.17;4.60;;;13.90;99.90;;;;;;5074842;28;20659;-81
2023/06/06 03:58:13;;;;;;;10.23;4.50;;;13.90;99.90;;;;;;5059140;28;20222;-80
2023/06/06 04:00:41;;;;;;;12.93;5.20;;;14.00;99.90;;;;;;5059310;28;20320;-81
2023/06/06 04:03:08;;;;;;;8.97;4.13;;;14.00;99.90;;;;;;5042123;28;20259;-82
2023/06/06 04:05:36;;;;;;;9.00;4.10;;;14.10;99.90;;;;;;5076728;28;20289;-83
2023/06/06 04:08:04;;;;;;;8.60;5.00;;;14.10;99.90;;;;;;5059035;28;20190;-82
2023/06/06 04:10:31;;;;;;;10.50;4.70;;;14.10;99.90;;;;;;5058818;28;20226;-83
2023/06/06 04:13:00;;;;;;;7.10;4.17;;;14.10;99.90;;;;;;5058500;28;20284;-84
2023/06/06 04:15:28;;;;;;;10.57;4.70;;;14.20;99.90;;;;;;5076305;28;20241;-85
2023/06/06 04:17:55;;;;;;;8.83;4.33;;;14.20;99.90;;;;;;5076229;28;20182;-84
2023/06/06 04:20:23;;;;;;;8.00;4.33;;;14.30;99.90;;;;;;5058189;28;20237;-84
2023/06/06 04:22:53;;;;;;;11.07;4.90;;;14.30;99.90;;;;;;5076193;28;20185;-84
2023/06/06 04:25:20;;;;;;;12.13;5.00;;;14.40;99.90;;;;;;5058356;28;20206;-87
2023/06/06 04:27:48;;;;;;;10.47;4.53;;;14.40;99.90;;;;;;5058090;28;20658;-83
2023/06/06 04:30:22;;;;;;;10.53;4.57;;;14.50;99.90;;;;;;5040686;28;20233;-84
2023/06/06 04:32:51;;;;;;;8.60;4.20;;;14.60;99.90;;;;;;5058560;28;20648;-83
2023/06/06 04:35:18;;;;;;;11.27;4.50;;;14.60;99.90;;;;;;5075773;28;20638;-84
2023/06/06 04:37:47;;;;;;;8.00;4.50;;;14.70;99.90;;;;;;5057623;28;20218;-80
2023/06/06 04:40:15;;;;;;;7.77;4.13;;;14.80;99.90;;;;;;5042107;28;20277;-81
2023/06/06 04:42:42;;;;;;;11.53;4.40;;;14.80;99.90;;;;;;5058539;28;20244;-81
2023/06/06 04:45:10;;;;;;;7.17;3.70;;;14.90;99.90;;;;;;5076584;28;20304;-80
2023/06/06 04:47:40;;;;;;;9.87;4.50;;;14.90;99.90;;;;;;5058023;28;20189;-80
2023/06/06 04:50:08;;;;;;;7.40;4.17;;;15.00;99.90;;;;;;5040439;28;20222;-77
2023/06/06 04:52:36;;;;;;;10.00;3.50;;;15.00;99.90;;;;;;5075024;28;20672;-78
2023/06/06 04:55:04;;;;;;;8.10;3.80;;;15.10;99.90;;;;;;5073364;28;20245;-77
2023/06/06 04:57:32;;;;;;;7.57;4.10;;;15.20;99.90;;;;;;5056688;28;20198;-77
2023/06/06 05:00:00;;;;;;;7.43;3.67;;;15.40;99.90;;;;;;5057157;28;20218;-77
2023/06/06 05:02:29;;;;;;;7.50;3.70;;;15.40;99.90;;;;;;5056666;28;20194;-77
2023/06/06 05:04:58;;;;;;;7.60;3.67;;;15.50;99.90;;;;;;5074552;28;20214;-77
2023/06/06 05:07:25;;;;;;;7.73;3.70;;;15.60;99.90;;;;;;5055473;28;20641;-76
2023/06/06 05:09:53;;;;;;;7.73;3.67;;;15.70;99.90;;;;;;5074730;28;20585;-77
2023/06/06 05:12:43;;;;;;;7.27;3.67;;;15.80;99.90;;;;;;5056621;28;20178;-77
2023/06/06 05:15:10;;;;;;;5.40;3.40;;;15.90;99.90;;;;;;5073160;28;20324;-77
2023/06/06 05:17:37;;;;;;;7.13;3.67;;;16.00;99.90;;;;;;5073349;28;20295;-77
2023/06/06 05:20:10;;;;;;;5.10;3.20;;;16.10;99.90;;;;;;5039693;28;20831;-77
2023/06/06 05:22:37;;;;;;;7.30;3.40;;;16.20;99.90;;;;;;5074275;28;20183;-77
2023/06/06 05:25:05;;;;;;;6.40;3.27;;;16.30;99.90;;;;;;5039849;28;20747;-77
2023/06/06 05:27:32;;;;;;;7.90;3.37;;;16.40;99.90;;;;;;5056673;28;20190;-77
2023/06/06 05:30:01;;;;;;;5.53;3.33;;;16.50;99.90;;;;;;5072797;28;20226;-77
2023/06/06 05:32:28;;;;;;;6.13;3.40;;;16.60;99.90;;;;;;5073782;28;20206;-77
2023/06/06 05:34:55;;;;;;;5.90;3.30;;;16.70;99.90;;;;;;5056002;28;20215;-77
2023/06/06 05:37:22;;;;;;;5.80;3.30;;;16.70;99.90;;;;;;5039408;28;20277;-78
2023/06/06 05:39:49;;;;;;;11.43;3.60;;;16.90;99.90;;;;;;5056271;28;20614;-77
2023/06/06 05:42:16;;;;;;;13.07;3.97;;;17.00;99.90;;;;;;5074120;28;20197;-78
2023/06/06 05:44:43;;;;;;;5.17;3.30;;;17.10;99.90;;;;;;5073872;28;20202;-77
2023/06/06 05:47:11;;;;;;;5.87;3.40;;;17.20;99.90;;;;;;5055992;28;20780;-76
2023/06/06 05:49:38;;;;;;;5.23;3.20;;;17.30;99.90;;;;;;5056272;28;20300;-76
2023/06/06 05:52:05;;;;;;;7.10;3.37;;;17.50;99.90;;;;;;5072412;28;20194;-77
2023/06/06 05:54:34;;;;;;;7.33;3.33;;;17.60;99.90;;;;;;5055785;28;20758;-77
2023/06/06 05:57:22;;;;;;;6.40;2.90;;;17.80;99.90;;;;;;5073364;28;20213;-78
2023/06/06 05:59:49;;;;;;;6.60;3.27;;;17.90;99.90;;;;;;5055467;28;20737;-77
2023/06/06 06:02:16;;;;;;;6.83;3.13;;;18.10;99.90;;;;;;5073605;28;20190;-78
2023/06/06 06:04:45;;;;;;;5.20;3.17;;;18.20;99.90;;;;;;5071959;28;20686;-77
2023/06/06 06:07:13;;;;;;;6.67;2.93;;;18.30;99.90;;;;;;5073719;28;20197;-77
2023/06/06 06:09:40;;;;;;;6.97;2.90;;;18.50;99.90;;;;;;5071755;28;20697;-78
2023/06/06 06:12:08;;;;;;;6.53;2.80;;;18.60;99.90;;;;;;5073198;28;20186;-77
2023/06/06 06:14:35;;;;;;;5.23;2.67;;;18.60;99.90;;;;;;5054977;28;20299;-78
2023/06/06 06:17:02;;;;;;;6.80;3.23;;;18.80;99.90;;;;;;5038576;28;20538;-80
2023/06/06 06:19:33;;;;;;;4.63;2.40;;;18.90;99.90;;;;;;5054442;28;20222;-79
2023/06/06 06:22:00;;;;;;;7.03;2.90;;;19.10;99.90;;;;;;5072918;28;20638;-79
2023/06/06 06:24:30;;;;;;;4.13;2.50;;;19.20;99.90;;;;;;5038537;28;20222;-79
2023/06/06 06:26:57;;;;;;;8.50;2.90;;;19.30;99.90;;;;;;5054744;28;20210;-79
2023/06/06 06:29:24;;;;;;;6.20;2.50;;;19.30;99.90;;;;;;5054656;28;20217;-79
2023/06/06 06:31:51;;;;;;;8.67;2.43;;;19.50;99.90;;;;;;5055127;28;20198;-81
2023/06/06 06:34:19;;;;;;;6.43;2.63;;;19.60;99.90;;;;;;5038154;28;20217;-78
2023/06/06 06:36:45;;;;;;;8.13;3.00;;;19.70;99.90;;;;;;5054768;28;20206;-79
2023/06/06 06:39:18;;;;;;;5.93;2.93;;;19.90;99.90;;;;;;5072827;28;20376;-78
2023/06/06 06:41:46;;;;;;;4.93;2.30;;;20.00;99.90;;;;;;5055302;28;20178;-79
2023/06/06 06:44:13;;;;;;;8.77;2.50;;;20.10;99.90;;;;;;5038287;28;20226;-79
2023/06/06 06:46:39;;;;;;;6.17;2.40;;;20.20;99.90;;;;;;5055280;28;20228;-79
2023/06/06 06:49:29;;;;;;;5.43;2.40;;;20.30;99.90;;;;;;5058688;28;20200;-78
2023/06/06 06:51:57;;;;;;;3.37;2.20;;;20.40;99.90;;;;;;5054927;28;20190;-79
2023/06/06 06:54:26;;;;;;;4.97;2.23;;;20.50;99.90;;;;;;5054673;28;20686;-79
2023/06/06 06:56:53;;;;;;;7.60;2.20;;;20.60;99.90;;;;;;5054829;28;20198;-80
2023/06/06 06:59:21;;;;;;;5.70;2.40;;;20.70;99.90;;;;;;5072658;28;20202;-79
2023/06/06 07:01:49;;;;;;;4.13;2.10;;;20.80;99.90;;;;;;5071184;28;20252;-79
2023/06/06 07:04:17;;;;;;;7.03;2.20;;;21.00;99.60;;;;;;5054409;28;20206;-79
2023/06/06 07:06:45;;;;;;;6.23;2.30;;;21.10;99.10;;;;;;5054434;28;20205;-79
2023/06/06 07:09:14;;;;;;;6.83;2.20;;;21.20;98.70;;;;;;5054329;28;20197;-80
2023/06/06 07:11:41;;;;;;;3.17;2.10;;;21.40;98.20;;;;;;5053694;28;20682;-80
2023/06/06 07:14:08;;;;;;;5.37;2.00;;;21.50;97.00;;;;;;5054119;28;20265;-79
2023/06/06 07:16:35;;;;;;;6.03;2.10;;;21.60;95.10;;;;;;5054249;28;20703;-79
2023/06/06 07:19:02;;;;;;;1.93;1.70;;;21.70;94.90;;;;;;5037585;28;20194;-79
2023/06/06 07:21:29;;;;;;;4.17;2.00;;;21.80;92.90;;;;;;5037849;28;20202;-80
2023/06/06 07:23:56;;;;;;;4.47;2.10;;;21.80;92.40;;;;;;5054100;28;20662;-78
2023/06/06 07:26:25;;;;;;;3.93;1.87;;;22.00;92.60;;;;;;5053627;28;20212;-78
2023/06/06 07:28:52;;;;;;;4.07;1.90;;;22.10;91.80;;;;;;5053319;28;20221;-80
2023/06/06 07:31:19;;;;;;;3.70;1.83;;;22.20;90.80;;;;;;5052863;28;20222;-79
2023/06/06 07:33:46;;;;;;;5.27;2.00;;;22.20;89.70;;;;;;5053897;28;20657;-80
2023/06/06 07:36:13;;;;;;;5.63;2.20;;;22.40;90.50;;;;;;5036906;28;20313;-79
2023/06/06 07:38:41;;;;;;;3.60;1.67;;;22.50;91.00;;;;;;5053328;28;20415;-80
2023/06/06 07:41:08;;;;;;;3.05;1.80;;;22.70;91.40;;;;;;5053681;28;20244;-80
2023/06/06 07:43:35;;;;;;;4.87;1.50;;;22.80;88.50;;;;;;5054375;28;20251;-80
2023/06/06 07:46:02;;;;;;;2.65;1.70;;;22.80;85.20;;;;;;5053342;28;20214;-80
2023/06/06 07:48:29;;;;;;;4.28;1.90;;;22.90;85.10;;;;;;5071399;28;20190;-79
2023/06/06 07:50:56;;;;;;;2.58;1.60;;;23.00;85.90;;;;;;5053504;28;20305;-78
2023/06/06 07:53:23;;;;;;;2.40;1.70;;;23.00;81.80;;;;;;5053701;28;21052;-79
2023/06/06 07:55:50;;;;;;;3.30;1.90;;;23.00;81.20;;;;;;5053279;28;20308;-80
2023/06/06 07:58:22;;;;;;;7.77;2.00;;;23.10;81.80;;;;;;5071718;28;20190;-80
2023/06/06 08:00:49;;;;;;;2.83;1.77;;;23.20;81.50;;;;;;5053581;28;20248;-80
2023/06/06 08:03:16;;;;;;;3.63;1.67;;;23.20;80.40;;;;;;5071445;28;20269;-79
2023/06/06 08:05:43;;;;;;;2.53;1.70;;;23.40;81.10;;;;;;5071623;28;20225;-80
2023/06/06 08:08:11;;;;;;;3.80;1.63;;;23.50;80.00;;;;;;5036681;28;20213;-78
2023/06/06 08:10:38;;;;;;;2.95;1.90;;;23.50;78.30;;;;;;5053910;28;20412;-80
2023/06/06 08:13:05;;;;;;;3.35;1.80;;;23.60;77.70;;;;;;5053588;28;20289;-80
2023/06/06 08:15:32;;;;;;;3.85;1.80;;;23.70;78.70;;;;;;5070217;28;20299;-80
2023/06/06 08:17:59;;;;;;;3.37;1.80;;;23.80;77.30;;;;;;5037065;28;20194;-80
2023/06/06 08:20:26;;;;;;;3.15;1.60;;;23.90;76.00;;;;;;5071503;28;20697;-80
2023/06/06 08:22:53;;;;;;;3.25;1.67;;;24.40;74.40;;;;;;5071470;28;20191;-79
2023/06/06 08:25:20;;;;;;;5.55;1.70;;;25.20;72.00;;;;;;5053492;28;20237;-79
2023/06/06 08:27:47;;;;;;;4.03;1.90;;;26.10;69.50;;;;;;5053536;28;20206;-80
2023/06/06 08:30:15;;;;;;;4.40;1.80;;;26.80;67.80;;;;;;5053336;28;20313;-79
2023/06/06 08:32:42;;;;;;;6.78;1.67;;;27.60;66.70;;;;;;5053517;28;20190;-80
2023/06/06 08:35:09;;;;;;;2.03;1.60;;;28.00;62.50;;;;;;5053797;28;20222;-80
2023/06/06 08:37:37;;;;;;;3.33;1.70;;;28.40;60.00;;;;;;5054054;28;20190;-80
2023/06/06 08:40:04;;;;;;;2.50;1.40;;;28.80;60.00;;;;;;5053745;28;20644;-82
2023/06/06 08:42:35;;;;;;;2.10;1.40;;;29.10;58.10;;;;;;5039453;28;20198;-79
2023/06/06 08:45:05;;;;;;;1.95;1.60;;;29.30;57.30;;;;;;5074951;28;20739;-80
2023/06/06 08:47:34;;;;;;;3.78;2.00;;;29.10;55.90;;;;;;5074972;28;20179;-79
2023/06/06 08:50:04;;;;;;;3.40;1.80;;;29.20;56.60;;;;;;5057514;28;20292;-80
2023/06/06 08:52:35;;;;;;;5.55;1.70;;;29.30;55.80;;;;;;5057392;28;20204;-81
2023/06/06 08:55:04;;;;;;;3.67;1.65;;;29.70;56.10;;;;;;5057364;28;20214;-79
2023/06/06 08:57:32;;;;;;;4.95;1.88;;;30.00;55.60;;;;;;5073526;28;20668;-79
2023/06/06 09:00:10;;;;;;;3.28;1.60;;;30.20;54.50;;;;;;5040380;28;20226;-80
2023/06/06 09:02:41;;;;;;;3.95;1.73;;;30.40;54.10;;;;;;5040497;28;20661;-79
2023/06/06 09:05:12;;;;;;;6.53;1.90;;;30.70;54.30;;;;;;5056752;28;20263;-79
2023/06/06 09:07:40;;;;;;;5.20;1.60;;;30.80;53.80;;;;;;5056938;28;20194;-79
2023/06/06 09:10:08;;;;;;;4.45;1.80;;;31.00;53.60;;;;;;5040076;28;20257;-80
2023/06/06 09:12:42;;;;;;;2.95;1.30;;;31.10;52.50;;;;;;5040340;28;20256;-80
2023/06/06 09:15:10;;;;;;;2.83;1.70;;;31.10;51.80;;;;;;5039956;28;20335;-79
2023/06/06 09:17:44;;;;;;;2.00;1.58;;;31.10;52.50;;;;;;5056865;28;20206;-80
2023/06/06 09:20:16;;;;;;;2.63;1.70;;;31.30;51.40;;;;;;5056468;28;20275;-80
2023/06/06 09:22:48;;;;;;;3.78;1.73;;;31.60;52.00;;;;;;5056132;28;20289;-80
2023/06/06 09:25:19;;;;;;;2.30;1.60;;;31.80;51.20;;;;;;5073941;28;20221;-78
2023/06/06 09:27:48;;;;;;;2.90;1.70;;;32.00;50.40;;;;;;5073953;28;20174;-81
2023/06/06 09:30:26;;;;;;;3.65;1.60;;;31.50;49.70;;;;;;5073902;28;20259;-80
2023/06/06 09:32:58;;;;;;;5.30;1.90;;;31.40;49.80;;;;;;5055444;28;20606;-79
2023/06/06 09:35:30;;;;;;;5.45;1.70;;;31.50;49.50;;;;;;5073511;28;20210;-80
2023/06/06 09:38:08;;;;;;;2.65;1.70;;;31.40;49.20;;;;;;5055767;28;20198;-80
2023/06/06 09:40:45;;;;;;;2.53;1.63;;;31.50;49.30;;;;;;5055755;28;20213;-78
2023/06/06 09:43:14;;;;;;;1.77;1.60;;;31.50;48.40;;;;;;5055845;28;20233;-80
2023/06/06 09:45:51;;;;;;;2.75;1.60;;;31.50;48.70;;;;;;5056016;28;20210;-81
2023/06/06 09:48:23;;;;;;;6.10;1.80;;;31.80;47.80;;;;;;5056128;28;20265;-80
2023/06/06 09:50:50;;;;;;;3.53;1.63;;;31.70;48.70;;;;;;5073606;28;20583;-79
2023/06/06 09:53:18;;;;;;;4.22;1.75;;;31.60;47.90;;;;;;5055143;28;20234;-79
2023/06/06 09:55:46;;;;;;;4.15;1.90;;;31.60;47.70;;;;;;5039453;28;20218;-80
2023/06/06 09:58:19;;;;;;;1.77;1.52;;;31.60;47.10;;;;;;5038970;28;20198;-80
2023/06/06 10:00:47;;;;;;;4.22;1.90;;;31.50;47.00;;;;;;5074783;28;20234;-76
2023/06/06 10:03:22;;;;;;;3.92;1.70;;;31.70;47.90;;;;;;5057893;28;20205;-80
2023/06/06 10:05:52;;;;;;;2.78;1.67;;;31.80;47.90;;;;;;5057493;28;20403;-78
2023/06/06 10:08:21;;;;;;;3.05;1.77;;;31.90;47.70;;;;;;5057734;28;20658;-79
2023/06/06 10:10:49;;;;;;;1.90;1.60;;;32.00;46.80;;;;;;5075950;28;20245;-80
2023/06/06 10:13:19;;;;;;;3.60;1.65;;;32.20;47.30;;;;;;5074403;28;20198;-77
2023/06/06 10:15:47;;;;;;;2.65;1.63;;;32.50;46.40;;;;;;5056591;28;20269;-77
2023/06/06 10:18:16;;;;;;;3.15;1.60;;;32.50;46.20;;;;;;5039880;28;20244;-78
2023/06/06 10:20:44;;;;;;;2.58;1.63;;;32.50;46.70;;;;;;5071770;28;20700;-80
2023/06/06 10:23:12;;;;;;;3.63;1.70;;;32.40;45.90;;;;;;5071754;28;20696;-80
2023/06/06 10:25:40;;;;;;;3.60;1.70;;;32.30;46.10;;;;;;5055134;28;20222;-79
2023/06/06 10:28:12;;;;;;;2.75;1.65;;;32.60;47.10;;;;;;5038268;28;20241;-79
2023/06/06 10:30:42;;;;;;;3.58;1.70;;;33.00;46.00;;;;;;5054754;28;20295;-79
2023/06/06 10:33:42;;;;;;;3.40;1.85;;;32.80;44.90;;;;;;5054763;28;20248;-79
2023/06/06 10:36:15;;;;;;;3.55;1.83;;;33.20;45.50;;;;;;5071150;28;20233;-79
2023/06/06 10:39:34;;;;;;;6.85;1.65;;;33.30;45.10;;;;;;5054780;28;20186;-79
2023/06/06 10:42:08;;;;;;;4.72;2.03;;;33.60;45.70;;;;;;4932911;29;20214;-79
2023/06/06 10:44:53;;;;;;;4.32;1.70;;;33.60;44.90;;;;;;4917453;29;20230;-81
2023/06/06 10:47:46;;;;;;;2.33;1.60;;;33.60;44.30;;;;;;4933392;29;20182;-79
2023/06/06 10:50:17;;;;;;;4.75;1.90;;;33.60;44.00;;;;;;4933166;29;20246;-79
2023/06/06 10:52:55;;;;;;;3.28;2.10;;;33.90;44.00;;;;;;4916987;29;20295;-79
2023/06/06 10:55:22;;;;;;;4.93;1.73;;;34.20;44.60;;;;;;4917219;29;20246;-80
2023/06/06 10:58:03;;;;;;;2.10;1.73;;;34.30;44.40;;;;;;4932947;29;20214;-81
2023/06/06 11:00:35;;;;;;;3.90;2.10;;;34.10;43.30;;;;;;4933156;29;20258;-80
2023/06/06 11:03:36;;;;;;;2.72;1.80;;;34.50;43.30;;;;;;4932983;29;20227;-80
2023/06/06 11:06:11;;;;;;;2.88;1.70;;;34.30;43.30;;;;;;4932000;29;20222;-80
2023/06/06 11:08:53;;;;;;;2.25;1.75;;;34.10;42.90;;;;;;4917059;29;20620;-79
2023/06/06 11:11:23;;;;;;;3.80;1.90;;;34.10;42.10;;;;;;4932855;29;20258;-80
2023/06/06 11:13:56;;;;;;;3.70;1.85;;;34.10;43.00;;;;;;4933038;29;20223;-79
2023/06/06 11:17:00;;;;;;;4.03;1.98;;;33.80;42.80;;;;;;4932819;29;20199;-80
2023/06/06 11:19:33;;;;;;;5.13;1.80;;;34.10;43.40;;;;;;5040817;28;20224;-79
2023/06/06 11:22:01;;;;;;;3.13;1.85;;;33.90;42.40;;;;;;5054080;28;20696;-79
2023/06/06 11:24:34;;;;;;;4.38;1.80;;;34.10;43.00;;;;;;5054743;28;20225;-79
2023/06/06 11:27:01;;;;;;;2.08;1.77;;;34.50;42.70;;;;;;5038285;28;20209;-79
2023/06/06 11:29:31;;;;;;;4.35;1.83;;;34.90;41.40;;;;;;5072088;28;20209;-80
2023/06/06 11:31:58;;;;;;;4.13;2.03;;;34.80;41.70;;;;;;5037931;28;20712;-80
2023/06/06 11:34:25;;;;;;;3.15;1.88;;;34.70;41.40;;;;;;5054193;28;20218;-79
2023/06/06 11:36:53;;;;;;;4.07;2.03;;;34.20;42.30;;;;;;5054449;28;20708;-80
2023/06/06 11:39:21;;;;;;;2.30;1.70;;;34.20;42.00;;;;;;5037741;28;20692;-80
2023/06/06 11:41:49;;;;;;;3.08;1.63;;;34.30;41.50;;;;;;5055093;28;20263;-80
2023/06/06 11:44:17;;;;;;;1.90;1.70;;;34.40;42.10;;;;;;5037870;28;20658;-78
2023/06/06 11:46:52;;;;;;;3.53;1.90;;;34.30;41.50;;;;;;5054555;28;20202;-80
2023/06/06 11:49:21;;;;;;;2.80;1.95;;;34.50;41.60;;;;;;5072245;28;20678;-79
2023/06/06 11:51:58;;;;;;;3.38;1.75;;;34.20;41.40;;;;;;5054415;28;20728;-79
2023/06/06 11:54:27;;;;;;;2.42;1.80;;;34.10;41.40;;;;;;5037456;28;20275;-80
2023/06/06 11:56:59;;;;;;;2.50;1.60;;;34.60;41.90;;;;;;5071882;28;20525;-80
2023/06/06 11:59:27;;;;;;;2.92;1.90;;;35.00;41.30;;;;;;5037830;28;20214;-79
2023/06/06 12:01:56;;;;;;;2.40;1.80;;;35.00;40.20;;;;;;5054054;28;20198;-79
2023/06/06 12:04:25;;;;;;;2.95;1.88;;;35.00;40.60;;;;;;5054284;28;20210;-80
2023/06/06 12:07:03;;;;;;;5.38;2.10;;;34.80;40.90;;;;;;5053784;28;20338;-80
2023/06/06 12:09:32;;;;;;;2.78;1.92;;;34.40;41.70;;;;;;5054218;28;20213;-80
2023/06/06 12:12:04;;;;;;;3.58;2.10;;;34.60;41.50;;;;;;5054189;28;20700;-80
2023/06/06 12:14:33;;;;;;;3.05;1.90;;;34.90;41.00;;;;;;5054087;28;20330;-80
2023/06/06 12:17:06;;;;;;;4.07;1.90;;;35.00;40.90;;;;;;5055311;28;20198;-79
2023/06/06 12:19:33;;;;;;;3.03;2.10;;;35.20;41.20;;;;;;5057483;28;20222;-80
2023/06/06 12:22:01;;;;;;;2.90;1.88;;;35.10;40.30;;;;;;5075677;28;20197;-79
2023/06/06 12:24:30;;;;;;;3.35;2.08;;;35.00;40.30;;;;;;5057224;28;20253;-79
2023/06/06 12:27:00;;;;;;;5.18;1.98;;;35.00;40.20;;;;;;5057673;28;20262;-80
2023/06/06 12:29:30;;;;;;;3.95;2.10;;;35.10;40.10;;;;;;5057317;28;20295;-79
2023/06/06 12:32:21;;;;;;;3.33;2.00;;;35.10;40.50;;;;;;5040734;28;20264;-80
2023/06/06 12:35:21;;;;;;;7.10;2.08;;;35.20;40.50;;;;;;5075606;28;20205;-81
2023/06/06 12:37:48;;;;;;;4.57;2.38;;;35.60;40.20;;;;;;5057157;28;20607;-81
2023/06/06 12:40:20;;;;;;;5.25;2.03;;;35.20;39.60;;;;;;5075267;28;20232;-79
2023/06/06 12:42:52;;;;;;;3.15;2.15;;;34.60;40.60;;;;;;5057172;28;20204;-80
2023/06/06 12:45:20;;;;;;;3.72;2.05;;;34.60;40.50;;;;;;5040682;28;20308;-83
2023/06/06 12:47:49;;;;;;;3.17;2.20;;;34.60;40.30;;;;;;5057219;28;20220;-81
2023/06/06 12:50:16;;;;;;;2.70;1.98;;;34.40;40.40;;;;;;5040311;28;20598;-80
2023/06/06 12:52:43;;;;;;;4.25;2.20;;;34.30;41.20;;;;;;5074616;28;20217;-80
2023/06/06 12:55:10;;;;;;;3.90;2.30;;;34.70;41.00;;;;;;5056702;28;20245;-79
2023/06/06 12:57:37;;;;;;;2.75;2.00;;;34.90;41.00;;;;;;5056648;28;20201;-79